sensor_id;sensor_type;location;lat;lon;timestamp;temperature;humidity
83254;HTU21D;73149;47.270;39.602;2023-11-18T00:00:29;6.15;80.43
83254;HTU21D;73149;47.270;39.602;2023-11-18T00:02:55;6.17;80.40
83254;HTU21D;73149;47.270;39.602;2023-11-18T00:05:21;6.16;80.43
83254;HTU21D;73149;47.270;39.602;2023-11-18T00:07:47;6.15;80.52
83254;HTU21D;73149;47.270;39.602;2023-11-18T00:10:12;6.16;80.55
83254;HTU21D;73149;47.270;39.602;2023-11-18T00:12:38;6.16;80.58
83254;HTU21D;73149;47.270;39.602;2023-11-18T00:15:08;6.15;80.63
83254;HTU21D;73149;47.270;39.602;2023-11-18T00:17:36;6.22;80.67
83254;HTU21D;73149;47.270;39.602;2023-11-18T00:20:02;6.29;80.64
83254;HTU21D;73149;47.270;39.602;2023-11-18T00:22:38;6.28;80.56
83254;HTU21D;73149;47.270;39.602;2023-11-18T00:25:04;6.28;80.60
83254;HTU21D;73149;47.270;39.602;2023-11-18T00:27:39;6.26;80.64
83254;HTU21D;73149;47.270;39.602;2023-11-18T00:30:06;6.24;80.66
83254;HTU21D;73149;47.270;39.602;2023-11-18T00:32:37;6.17;80.72
83254;HTU21D;73149;47.270;39.602;2023-11-18T00:35:03;6.14;80.79
83254;HTU21D;73149;47.270;39.602;2023-11-18T00:37:32;6.11;80.87
83254;HTU21D;73149;47.270;39.602;2023-11-18T00:39:58;6.12;80.88
83254;HTU21D;73149;47.270;39.602;2023-11-18T00:42:24;6.11;80.91
83254;HTU21D;73149;47.270;39.602;2023-11-18T00:44:50;6.10;80.90
83254;HTU21D;73149;47.270;39.602;2023-11-18T00:47:16;6.09;80.91
83254;HTU21D;73149;47.270;39.602;2023-11-18T00:49:42;6.08;80.94
83254;HTU21D;73149;47.270;39.602;2023-11-18T00:52:08;6.06;80.98
83254;HTU21D;73149;47.270;39.602;2023-11-18T00:54:34;6.06;81.01
83254;HTU21D;73149;47.270;39.602;2023-11-18T00:57:02;6.08;81.00
83254;HTU21D;73149;47.270;39.602;2023-11-18T00:59:28;6.09;80.94
83254;HTU21D;73149;47.270;39.602;2023-11-18T01:01:54;6.07;80.98
83254;HTU21D;73149;47.270;39.602;2023-11-18T01:04:20;6.09;81.01
83254;HTU21D;73149;47.270;39.602;2023-11-18T01:06:45;6.17;81.02
83254;HTU21D;73149;47.270;39.602;2023-11-18T01:09:12;6.20;80.94
83254;HTU21D;73149;47.270;39.602;2023-11-18T01:11:38;6.24;80.94
83254;HTU21D;73149;47.270;39.602;2023-11-18T01:14:04;6.23;80.95
83254;HTU21D;73149;47.270;39.602;2023-11-18T01:16:30;6.27;81.01
83254;HTU21D;73149;47.270;39.602;2023-11-18T01:18:56;6.33;80.93
83254;HTU21D;73149;47.270;39.602;2023-11-18T01:21:22;6.33;80.94
83254;HTU21D;73149;47.270;39.602;2023-11-18T01:23:50;6.30;80.94
83254;HTU21D;73149;47.270;39.602;2023-11-18T01:26:16;6.27;81.01
83254;HTU21D;73149;47.270;39.602;2023-11-18T01:28:42;6.27;81.09
83254;HTU21D;73149;47.270;39.602;2023-11-18T01:31:09;6.31;81.10
83254;HTU21D;73149;47.270;39.602;2023-11-18T01:33:39;6.34;81.10
83254;HTU21D;73149;47.270;39.602;2023-11-18T01:36:08;6.34;81.07
83254;HTU21D;73149;47.270;39.602;2023-11-18T01:38:35;6.31;81.14
83254;HTU21D;73149;47.270;39.602;2023-11-18T01:41:01;6.30;81.20
83254;HTU21D;73149;47.270;39.602;2023-11-18T01:43:27;6.29;81.20
83254;HTU21D;73149;47.270;39.602;2023-11-18T01:45:53;6.26;81.20
83254;HTU21D;73149;47.270;39.602;2023-11-18T01:48:23;6.25;81.29
83254;HTU21D;73149;47.270;39.602;2023-11-18T01:50:52;6.28;81.31
83254;HTU21D;73149;47.270;39.602;2023-11-18T01:53:19;6.29;81.18
83254;HTU21D;73149;47.270;39.602;2023-11-18T01:55:44;6.29;81.17
83254;HTU21D;73149;47.270;39.602;2023-11-18T01:58:11;6.31;81.15
83254;HTU21D;73149;47.270;39.602;2023-11-18T02:00:41;6.30;81.20
83254;HTU21D;73149;47.270;39.602;2023-11-18T02:03:14;6.33;81.25
83254;HTU21D;73149;47.270;39.602;2023-11-18T02:05:40;6.30;81.28
83254;HTU21D;73149;47.270;39.602;2023-11-18T02:08:08;6.33;81.29
83254;HTU21D;73149;47.270;39.602;2023-11-18T02:10:36;6.37;81.33
83254;HTU21D;73149;47.270;39.602;2023-11-18T02:13:13;6.44;81.24
83254;HTU21D;73149;47.270;39.602;2023-11-18T02:15:40;6.44;81.19
83254;HTU21D;73149;47.270;39.602;2023-11-18T02:18:08;6.40;81.22
83254;HTU21D;73149;47.270;39.602;2023-11-18T02:20:36;6.41;81.29
83254;HTU21D;73149;47.270;39.602;2023-11-18T02:23:02;6.42;81.33
83254;HTU21D;73149;47.270;39.602;2023-11-18T02:25:29;6.42;81.32
83254;HTU21D;73149;47.270;39.602;2023-11-18T02:27:57;6.40;81.33
83254;HTU21D;73149;47.270;39.602;2023-11-18T02:30:23;6.42;81.35
83254;HTU21D;73149;47.270;39.602;2023-11-18T02:33:07;6.42;81.34
83254;HTU21D;73149;47.270;39.602;2023-11-18T02:35:48;6.41;81.37
83254;HTU21D;73149;47.270;39.602;2023-11-18T02:38:21;6.38;81.35
83254;HTU21D;73149;47.270;39.602;2023-11-18T02:40:51;6.38;81.44
83254;HTU21D;73149;47.270;39.602;2023-11-18T02:43:19;6.42;81.49
83254;HTU21D;73149;47.270;39.602;2023-11-18T02:45:46;6.42;81.43
83254;HTU21D;73149;47.270;39.602;2023-11-18T02:48:13;6.41;81.46
83254;HTU21D;73149;47.270;39.602;2023-11-18T02:50:40;6.42;81.49
83254;HTU21D;73149;47.270;39.602;2023-11-18T02:53:08;6.44;81.50
83254;HTU21D;73149;47.270;39.602;2023-11-18T02:55:35;6.44;81.46
83254;HTU21D;73149;47.270;39.602;2023-11-18T02:58:01;6.43;81.52
83254;HTU21D;73149;47.270;39.602;2023-11-18T03:00:28;6.44;81.52
83254;HTU21D;73149;47.270;39.602;2023-11-18T03:02:55;6.45;81.54
83254;HTU21D;73149;47.270;39.602;2023-11-18T03:05:21;6.41;81.57
83254;HTU21D;73149;47.270;39.602;2023-11-18T03:07:47;6.40;81.61
83254;HTU21D;73149;47.270;39.602;2023-11-18T03:10:19;6.38;81.68
83254;HTU21D;73149;47.270;39.602;2023-11-18T03:15:15;6.42;81.72
83254;HTU21D;73149;47.270;39.602;2023-11-18T03:17:45;6.41;81.66
83254;HTU21D;73149;47.270;39.602;2023-11-18T03:20:12;6.37;81.66
83254;HTU21D;73149;47.270;39.602;2023-11-18T03:22:41;6.34;81.72
83254;HTU21D;73149;47.270;39.602;2023-11-18T03:25:09;6.34;81.71
83254;HTU21D;73149;47.270;39.602;2023-11-18T03:27:35;6.34;81.70
83254;HTU21D;73149;47.270;39.602;2023-11-18T03:30:01;6.34;81.67
83254;HTU21D;73149;47.270;39.602;2023-11-18T03:32:27;6.34;81.66
83254;HTU21D;73149;47.270;39.602;2023-11-18T03:34:53;6.29;81.68
83254;HTU21D;73149;47.270;39.602;2023-11-18T03:37:19;6.30;81.72
83254;HTU21D;73149;47.270;39.602;2023-11-18T03:39:48;6.28;81.63
83254;HTU21D;73149;47.270;39.602;2023-11-18T03:42:14;6.24;81.68
83254;HTU21D;73149;47.270;39.602;2023-11-18T03:44:43;6.22;81.72
83254;HTU21D;73149;47.270;39.602;2023-11-18T03:47:13;6.20;81.75
83254;HTU21D;73149;47.270;39.602;2023-11-18T03:49:40;6.17;81.78
83254;HTU21D;73149;47.270;39.602;2023-11-18T03:52:07;6.16;81.81
83254;HTU21D;73149;47.270;39.602;2023-11-18T03:54:33;6.19;81.91
83254;HTU21D;73149;47.270;39.602;2023-11-18T03:56:59;6.21;81.89
83254;HTU21D;73149;47.270;39.602;2023-11-18T03:59:25;6.19;81.87
83254;HTU21D;73149;47.270;39.602;2023-11-18T04:01:51;6.15;81.95
83254;HTU21D;73149;47.270;39.602;2023-11-18T04:04:17;6.14;81.95
83254;HTU21D;73149;47.270;39.602;2023-11-18T04:06:43;6.15;81.99
83254;HTU21D;73149;47.270;39.602;2023-11-18T04:09:10;6.17;81.97
83254;HTU21D;73149;47.270;39.602;2023-11-18T04:11:38;6.21;82.00
83254;HTU21D;73149;47.270;39.602;2023-11-18T04:14:04;6.21;81.98
83254;HTU21D;73149;47.270;39.602;2023-11-18T04:16:30;6.22;82.01
83254;HTU21D;73149;47.270;39.602;2023-11-18T04:18:56;6.22;81.97
83254;HTU21D;73149;47.270;39.602;2023-11-18T04:21:23;6.20;81.96
83254;HTU21D;73149;47.270;39.602;2023-11-18T04:23:49;6.12;82.07
83254;HTU21D;73149;47.270;39.602;2023-11-18T04:26:14;6.06;82.13
83254;HTU21D;73149;47.270;39.602;2023-11-18T04:28:40;6.02;82.24
83254;HTU21D;73149;47.270;39.602;2023-11-18T04:31:06;6.00;82.31
83254;HTU21D;73149;47.270;39.602;2023-11-18T04:33:32;5.98;82.32
83254;HTU21D;73149;47.270;39.602;2023-11-18T04:35:59;5.97;82.36
83254;HTU21D;73149;47.270;39.602;2023-11-18T04:38:25;5.99;82.38
83254;HTU21D;73149;47.270;39.602;2023-11-18T04:40:55;6.04;82.34
83254;HTU21D;73149;47.270;39.602;2023-11-18T04:43:21;6.05;82.29
83254;HTU21D;73149;47.270;39.602;2023-11-18T04:45:50;6.02;82.23
83254;HTU21D;73149;47.270;39.602;2023-11-18T04:48:16;6.00;82.28
83254;HTU21D;73149;47.270;39.602;2023-11-18T04:50:42;5.98;82.32
83254;HTU21D;73149;47.270;39.602;2023-11-18T04:53:08;5.97;82.36
83254;HTU21D;73149;47.270;39.602;2023-11-18T04:55:36;5.97;82.32
83254;HTU21D;73149;47.270;39.602;2023-11-18T04:58:02;5.96;82.35
83254;HTU21D;73149;47.270;39.602;2023-11-18T05:00:28;5.94;82.36
83254;HTU21D;73149;47.270;39.602;2023-11-18T05:02:54;5.94;82.37
83254;HTU21D;73149;47.270;39.602;2023-11-18T05:05:20;5.90;82.38
83254;HTU21D;73149;47.270;39.602;2023-11-18T05:07:47;5.86;82.46
83254;HTU21D;73149;47.270;39.602;2023-11-18T05:10:13;5.83;82.52
83254;HTU21D;73149;47.270;39.602;2023-11-18T05:12:39;5.81;82.61
83254;HTU21D;73149;47.270;39.602;2023-11-18T05:15:06;5.78;82.62
83254;HTU21D;73149;47.270;39.602;2023-11-18T05:17:34;5.72;82.68
83254;HTU21D;73149;47.270;39.602;2023-11-18T05:20:04;5.71;82.72
83254;HTU21D;73149;47.270;39.602;2023-11-18T05:22:33;5.72;82.76
83254;HTU21D;73149;47.270;39.602;2023-11-18T05:24:59;5.69;82.68
83254;HTU21D;73149;47.270;39.602;2023-11-18T05:27:25;5.65;82.75
83254;HTU21D;73149;47.270;39.602;2023-11-18T05:29:52;5.68;82.84
83254;HTU21D;73149;47.270;39.602;2023-11-18T05:32:21;5.68;82.84
83254;HTU21D;73149;47.270;39.602;2023-11-18T05:34:50;5.69;82.81
83254;HTU21D;73149;47.270;39.602;2023-11-18T05:37:19;5.69;82.82
83254;HTU21D;73149;47.270;39.602;2023-11-18T05:39:45;5.70;82.84
83254;HTU21D;73149;47.270;39.602;2023-11-18T05:42:12;5.70;82.80
83254;HTU21D;73149;47.270;39.602;2023-11-18T05:44:38;5.71;82.79
83254;HTU21D;73149;47.270;39.602;2023-11-18T05:47:05;5.70;82.80
83254;HTU21D;73149;47.270;39.602;2023-11-18T05:49:33;5.69;82.78
83254;HTU21D;73149;47.270;39.602;2023-11-18T05:52:00;5.71;82.80
83254;HTU21D;73149;47.270;39.602;2023-11-18T05:54:26;5.71;82.75
83254;HTU21D;73149;47.270;39.602;2023-11-18T05:56:52;5.65;82.68
83254;HTU21D;73149;47.270;39.602;2023-11-18T05:59:19;5.60;82.76
83254;HTU21D;73149;47.270;39.602;2023-11-18T06:01:45;5.63;82.82
83254;HTU21D;73149;47.270;39.602;2023-11-18T06:04:13;5.62;82.77
83254;HTU21D;73149;47.270;39.602;2023-11-18T06:06:39;5.65;82.78
83254;HTU21D;73149;47.270;39.602;2023-11-18T06:09:05;5.67;82.68
83254;HTU21D;73149;47.270;39.602;2023-11-18T06:11:34;5.72;82.61
83254;HTU21D;73149;47.270;39.602;2023-11-18T06:14:01;5.68;82.42
83254;HTU21D;73149;47.270;39.602;2023-11-18T06:16:27;5.69;82.45
83254;HTU21D;73149;47.270;39.602;2023-11-18T06:18:54;5.68;82.41
83254;HTU21D;73149;47.270;39.602;2023-11-18T06:21:22;5.68;82.41
83254;HTU21D;73149;47.270;39.602;2023-11-18T06:23:54;5.67;82.39
83254;HTU21D;73149;47.270;39.602;2023-11-18T06:26:23;5.65;82.40
83254;HTU21D;73149;47.270;39.602;2023-11-18T06:28:53;5.71;82.46
83254;HTU21D;73149;47.270;39.602;2023-11-18T06:31:20;5.79;82.36
83254;HTU21D;73149;47.270;39.602;2023-11-18T06:33:47;5.80;82.31
83254;HTU21D;73149;47.270;39.602;2023-11-18T06:38:39;5.94;82.18
83254;HTU21D;73149;47.270;39.602;2023-11-18T06:41:06;5.95;82.08
83254;HTU21D;73149;47.270;39.602;2023-11-18T06:43:36;5.95;81.92
83254;HTU21D;73149;47.270;39.602;2023-11-18T06:46:20;5.87;81.95
83254;HTU21D;73149;47.270;39.602;2023-11-18T06:48:54;5.90;81.94
83254;HTU21D;73149;47.270;39.602;2023-11-18T06:51:21;5.91;81.91
83254;HTU21D;73149;47.270;39.602;2023-11-18T06:53:51;5.89;81.84
83254;HTU21D;73149;47.270;39.602;2023-11-18T06:56:17;5.89;81.88
83254;HTU21D;73149;47.270;39.602;2023-11-18T06:58:43;5.89;81.84
83254;HTU21D;73149;47.270;39.602;2023-11-18T07:01:12;5.81;81.81
83254;HTU21D;73149;47.270;39.602;2023-11-18T07:03:41;5.77;81.88
83254;HTU21D;73149;47.270;39.602;2023-11-18T07:06:07;5.71;81.89
83254;HTU21D;73149;47.270;39.602;2023-11-18T07:08:38;5.75;81.96
83254;HTU21D;73149;47.270;39.602;2023-11-18T07:11:05;5.72;81.84
83254;HTU21D;73149;47.270;39.602;2023-11-18T07:13:32;5.66;81.76
83254;HTU21D;73149;47.270;39.602;2023-11-18T07:16:00;5.64;81.79
83254;HTU21D;73149;47.270;39.602;2023-11-18T07:18:29;5.63;81.77
83254;HTU21D;73149;47.270;39.602;2023-11-18T07:21:01;5.60;81.71
83254;HTU21D;73149;47.270;39.602;2023-11-18T07:23:30;5.60;81.72
83254;HTU21D;73149;47.270;39.602;2023-11-18T07:25:56;5.59;81.60
83254;HTU21D;73149;47.270;39.602;2023-11-18T07:28:23;5.55;81.49
83254;HTU21D;73149;47.270;39.602;2023-11-18T07:30:49;5.56;81.49
83254;HTU21D;73149;47.270;39.602;2023-11-18T07:33:19;5.62;81.36
83254;HTU21D;73149;47.270;39.602;2023-11-18T07:35:46;5.56;81.29
83254;HTU21D;73149;47.270;39.602;2023-11-18T07:38:12;5.55;81.20
83254;HTU21D;73149;47.270;39.602;2023-11-18T07:40:38;5.48;81.26
83254;HTU21D;73149;47.270;39.602;2023-11-18T07:43:08;5.54;81.16
83254;HTU21D;73149;47.270;39.602;2023-11-18T07:45:37;5.49;80.98
83254;HTU21D;73149;47.270;39.602;2023-11-18T07:48:07;5.49;80.94
83254;HTU21D;73149;47.270;39.602;2023-11-18T07:50:35;5.45;80.93
83254;HTU21D;73149;47.270;39.602;2023-11-18T07:53:02;5.41;80.94
83254;HTU21D;73149;47.270;39.602;2023-11-18T07:55:29;5.42;80.91
83254;HTU21D;73149;47.270;39.602;2023-11-18T07:57:55;5.46;80.99
83254;HTU21D;73149;47.270;39.602;2023-11-18T08:00:21;5.49;80.98
83254;HTU21D;73149;47.270;39.602;2023-11-18T08:02:49;5.55;80.93
83254;HTU21D;73149;47.270;39.602;2023-11-18T08:05:15;5.55;80.91
83254;HTU21D;73149;47.270;39.602;2023-11-18T08:07:41;5.59;80.85
83254;HTU21D;73149;47.270;39.602;2023-11-18T08:10:09;5.61;80.85
83254;HTU21D;73149;47.270;39.602;2023-11-18T08:12:39;5.68;80.78
83254;HTU21D;73149;47.270;39.602;2023-11-18T08:15:06;5.69;80.52
83254;HTU21D;73149;47.270;39.602;2023-11-18T08:17:32;5.77;80.46
83254;HTU21D;73149;47.270;39.602;2023-11-18T08:19:59;5.87;80.33
83254;HTU21D;73149;47.270;39.602;2023-11-18T08:22:25;5.87;80.07
83254;HTU21D;73149;47.270;39.602;2023-11-18T08:24:51;5.91;79.91
83254;HTU21D;73149;47.270;39.602;2023-11-18T08:27:17;5.84;79.73
83254;HTU21D;73149;47.270;39.602;2023-11-18T08:29:43;5.82;79.71
83254;HTU21D;73149;47.270;39.602;2023-11-18T08:32:11;5.84;79.72
83254;HTU21D;73149;47.270;39.602;2023-11-18T08:34:37;5.90;79.72
83254;HTU21D;73149;47.270;39.602;2023-11-18T08:37:04;5.93;79.69
83254;HTU21D;73149;47.270;39.602;2023-11-18T08:39:30;5.96;79.72
83254;HTU21D;73149;47.270;39.602;2023-11-18T08:41:56;5.95;79.66
83254;HTU21D;73149;47.270;39.602;2023-11-18T08:44:22;5.92;79.51
83254;HTU21D;73149;47.270;39.602;2023-11-18T08:46:50;5.92;79.37
83254;HTU21D;73149;47.270;39.602;2023-11-18T08:49:18;5.85;79.27
83254;HTU21D;73149;47.270;39.602;2023-11-18T08:51:49;5.83;79.19
83254;HTU21D;73149;47.270;39.602;2023-11-18T08:54:24;5.81;79.30
83254;HTU21D;73149;47.270;39.602;2023-11-18T08:57:05;5.80;79.29
83254;HTU21D;73149;47.270;39.602;2023-11-18T08:59:49;5.83;79.40
83254;HTU21D;73149;47.270;39.602;2023-11-18T09:02:19;5.85;79.46
83254;HTU21D;73149;47.270;39.602;2023-11-18T09:04:52;5.89;79.29
83254;HTU21D;73149;47.270;39.602;2023-11-18T09:07:20;5.86;79.26
83254;HTU21D;73149;47.270;39.602;2023-11-18T09:09:47;5.87;79.27
83254;HTU21D;73149;47.270;39.602;2023-11-18T09:12:17;5.87;79.27
83254;HTU21D;73149;47.270;39.602;2023-11-18T09:14:44;5.90;79.12
83254;HTU21D;73149;47.270;39.602;2023-11-18T09:17:13;5.90;79.14
83254;HTU21D;73149;47.270;39.602;2023-11-18T09:19:40;5.95;79.20
83254;HTU21D;73149;47.270;39.602;2023-11-18T09:22:06;5.99;78.99
83254;HTU21D;73149;47.270;39.602;2023-11-18T09:24:32;5.94;78.97
83254;HTU21D;73149;47.270;39.602;2023-11-18T09:26:58;5.89;78.82
83254;HTU21D;73149;47.270;39.602;2023-11-18T09:29:24;5.84;78.82
83254;HTU21D;73149;47.270;39.602;2023-11-18T09:31:51;5.83;78.88
83254;HTU21D;73149;47.270;39.602;2023-11-18T09:34:19;5.86;78.87
83254;HTU21D;73149;47.270;39.602;2023-11-18T09:36:54;5.82;78.84
83254;HTU21D;73149;47.270;39.602;2023-11-18T09:39:20;5.84;78.74
83254;HTU21D;73149;47.270;39.602;2023-11-18T09:41:57;5.83;78.53
83254;HTU21D;73149;47.270;39.602;2023-11-18T09:44:24;5.79;78.52
83254;HTU21D;73149;47.270;39.602;2023-11-18T09:46:57;5.74;78.59
83254;HTU21D;73149;47.270;39.602;2023-11-18T09:49:32;5.71;78.53
83254;HTU21D;73149;47.270;39.602;2023-11-18T09:52:06;5.71;78.59
83254;HTU21D;73149;47.270;39.602;2023-11-18T09:54:50;5.70;78.66
83254;HTU21D;73149;47.270;39.602;2023-11-18T10:00:04;5.66;78.77
83254;HTU21D;73149;47.270;39.602;2023-11-18T10:02:50;5.71;78.74
83254;HTU21D;73149;47.270;39.602;2023-11-18T10:05:18;5.72;78.50
83254;HTU21D;73149;47.270;39.602;2023-11-18T10:07:49;5.68;78.66
83254;HTU21D;73149;47.270;39.602;2023-11-18T10:10:15;5.68;78.77
83254;HTU21D;73149;47.270;39.602;2023-11-18T10:12:44;5.72;78.82
83254;HTU21D;73149;47.270;39.602;2023-11-18T10:15:17;5.78;78.72
83254;HTU21D;73149;47.270;39.602;2023-11-18T10:17:45;5.80;78.38
83254;HTU21D;73149;47.270;39.602;2023-11-18T10:20:43;5.78;78.50
83254;HTU21D;73149;47.270;39.602;2023-11-18T10:23:11;5.75;78.35
83254;HTU21D;73149;47.270;39.602;2023-11-18T10:25:41;5.71;78.45
83254;HTU21D;73149;47.270;39.602;2023-11-18T10:28:31;5.74;78.38
83254;HTU21D;73149;47.270;39.602;2023-11-18T10:31:02;5.69;78.25
83254;HTU21D;73149;47.270;39.602;2023-11-18T10:33:37;5.66;78.20
83254;HTU21D;73149;47.270;39.602;2023-11-18T10:36:04;5.64;78.20
83254;HTU21D;73149;47.270;39.602;2023-11-18T10:38:31;5.64;78.29
83254;HTU21D;73149;47.270;39.602;2023-11-18T10:40:59;5.69;78.21
83254;HTU21D;73149;47.270;39.602;2023-11-18T10:43:27;5.67;78.15
83254;HTU21D;73149;47.270;39.602;2023-11-18T10:46:12;5.65;78.27
83254;HTU21D;73149;47.270;39.602;2023-11-18T10:48:48;5.59;78.24
83254;HTU21D;73149;47.270;39.602;2023-11-18T10:51:18;5.52;78.46
83254;HTU21D;73149;47.270;39.602;2023-11-18T10:53:53;5.52;78.40
83254;HTU21D;73149;47.270;39.602;2023-11-18T10:56:22;5.51;78.47
83254;HTU21D;73149;47.270;39.602;2023-11-18T10:59:04;5.51;78.20
83254;HTU21D;73149;47.270;39.602;2023-11-18T11:01:35;5.50;78.34
83254;HTU21D;73149;47.270;39.602;2023-11-18T11:04:11;5.50;78.29
83254;HTU21D;73149;47.270;39.602;2023-11-18T11:06:41;5.46;78.24
83254;HTU21D;73149;47.270;39.602;2023-11-18T11:09:10;5.42;78.30
83254;HTU21D;73149;47.270;39.602;2023-11-18T11:11:48;5.42;78.30
83254;HTU21D;73149;47.270;39.602;2023-11-18T11:14:15;5.47;78.28
83254;HTU21D;73149;47.270;39.602;2023-11-18T11:17:06;5.46;78.17
83254;HTU21D;73149;47.270;39.602;2023-11-18T11:19:59;5.45;78.11
83254;HTU21D;73149;47.270;39.602;2023-11-18T11:31:39;5.41;78.34
83254;HTU21D;73149;47.270;39.602;2023-11-18T11:34:16;5.37;78.37
83254;HTU21D;73149;47.270;39.602;2023-11-18T11:36:47;5.36;78.42
83254;HTU21D;73149;47.270;39.602;2023-11-18T11:39:17;5.35;78.47
83254;HTU21D;73149;47.270;39.602;2023-11-18T11:41:51;5.32;78.50
83254;HTU21D;73149;47.270;39.602;2023-11-18T11:44:18;5.32;78.53
83254;HTU21D;73149;47.270;39.602;2023-11-18T11:46:47;5.32;78.62
83254;HTU21D;73149;47.270;39.602;2023-11-18T11:49:22;5.27;78.66
83254;HTU21D;73149;47.270;39.602;2023-11-18T11:52:19;5.25;78.82
83254;HTU21D;73149;47.270;39.602;2023-11-18T11:55:07;5.22;78.88
83254;HTU21D;73149;47.270;39.602;2023-11-18T11:57:39;5.23;78.87
83254;HTU21D;73149;47.270;39.602;2023-11-18T12:00:11;5.22;78.94
83254;HTU21D;73149;47.270;39.602;2023-11-18T12:02:50;5.18;78.97
83254;HTU21D;73149;47.270;39.602;2023-11-18T12:05:30;5.17;79.08
83254;HTU21D;73149;47.270;39.602;2023-11-18T12:07:59;5.13;79.16
83254;HTU21D;73149;47.270;39.602;2023-11-18T12:10:31;5.10;79.28
83254;HTU21D;73149;47.270;39.602;2023-11-18T12:13:11;5.08;79.21
83254;HTU21D;73149;47.270;39.602;2023-11-18T12:16:02;5.08;79.29
83254;HTU21D;73149;47.270;39.602;2023-11-18T12:18:31;5.08;79.11
83254;HTU21D;73149;47.270;39.602;2023-11-18T12:20:59;5.04;79.15
83254;HTU21D;73149;47.270;39.602;2023-11-18T12:23:29;5.04;79.22
83254;HTU21D;73149;47.270;39.602;2023-11-18T12:25:56;5.03;79.21
83254;HTU21D;73149;47.270;39.602;2023-11-18T12:28:29;5.04;79.28
83254;HTU21D;73149;47.270;39.602;2023-11-18T12:31:03;5.05;79.26
83254;HTU21D;73149;47.270;39.602;2023-11-18T12:34:00;5.03;79.34
83254;HTU21D;73149;47.270;39.602;2023-11-18T12:41:41;5.11;79.56
83254;HTU21D;73149;47.270;39.602;2023-11-18T12:47:00;5.20;79.16
83254;HTU21D;73149;47.270;39.602;2023-11-18T12:49:47;5.08;79.17
83254;HTU21D;73149;47.270;39.602;2023-11-18T12:52:21;5.01;79.25
83254;HTU21D;73149;47.270;39.602;2023-11-18T12:54:48;5.00;79.36
83254;HTU21D;73149;47.270;39.602;2023-11-18T12:57:17;4.95;79.40
83254;HTU21D;73149;47.270;39.602;2023-11-18T12:59:45;4.93;79.42
83254;HTU21D;73149;47.270;39.602;2023-11-18T13:02:12;4.91;79.50
83254;HTU21D;73149;47.270;39.602;2023-11-18T13:04:45;4.90;79.63
83254;HTU21D;73149;47.270;39.602;2023-11-18T13:07:16;4.90;79.69
83254;HTU21D;73149;47.270;39.602;2023-11-18T13:09:50;4.87;79.82
83254;HTU21D;73149;47.270;39.602;2023-11-18T13:12:17;4.86;79.89
83254;HTU21D;73149;47.270;39.602;2023-11-18T13:14:46;4.84;79.97
83254;HTU21D;73149;47.270;39.602;2023-11-18T13:17:14;4.84;79.98
83254;HTU21D;73149;47.270;39.602;2023-11-18T13:19:42;4.86;80.01
83254;HTU21D;73149;47.270;39.602;2023-11-18T13:22:10;4.87;80.06
83254;HTU21D;73149;47.270;39.602;2023-11-18T13:24:43;4.87;80.11
83254;HTU21D;73149;47.270;39.602;2023-11-18T13:27:16;4.84;80.14
83254;HTU21D;73149;47.270;39.602;2023-11-18T13:29:48;4.82;80.16
83254;HTU21D;73149;47.270;39.602;2023-11-18T13:32:18;4.80;80.23
83254;HTU21D;73149;47.270;39.602;2023-11-18T13:34:48;4.82;80.31
83254;HTU21D;73149;47.270;39.602;2023-11-18T13:37:14;4.80;80.32
83254;HTU21D;73149;47.270;39.602;2023-11-18T13:39:45;4.81;80.32
83254;HTU21D;73149;47.270;39.602;2023-11-18T13:42:24;4.80;80.40
83254;HTU21D;73149;47.270;39.602;2023-11-18T13:44:51;4.78;80.37
83254;HTU21D;73149;47.270;39.602;2023-11-18T13:47:18;4.78;80.41
83254;HTU21D;73149;47.270;39.602;2023-11-18T13:49:44;4.74;80.40
83254;HTU21D;73149;47.270;39.602;2023-11-18T13:52:13;4.72;80.49
83254;HTU21D;73149;47.270;39.602;2023-11-18T13:54:42;4.73;80.50
83254;HTU21D;73149;47.270;39.602;2023-11-18T13:57:10;4.73;80.47
83254;HTU21D;73149;47.270;39.602;2023-11-18T13:59:37;4.73;80.48
83254;HTU21D;73149;47.270;39.602;2023-11-18T14:02:04;4.71;80.49
83254;HTU21D;73149;47.270;39.602;2023-11-18T14:04:32;4.73;80.51
83254;HTU21D;73149;47.270;39.602;2023-11-18T14:07:00;4.75;80.54
83254;HTU21D;73149;47.270;39.602;2023-11-18T14:09:29;4.73;80.52
83254;HTU21D;73149;47.270;39.602;2023-11-18T14:11:57;4.74;80.60
83254;HTU21D;73149;47.270;39.602;2023-11-18T14:14:23;4.75;80.56
83254;HTU21D;73149;47.270;39.602;2023-11-18T14:16:51;4.74;80.62
83254;HTU21D;73149;47.270;39.602;2023-11-18T14:19:19;4.77;80.62
83254;HTU21D;73149;47.270;39.602;2023-11-18T14:21:45;4.73;80.62
83254;HTU21D;73149;47.270;39.602;2023-11-18T14:24:11;4.72;80.65
83254;HTU21D;73149;47.270;39.602;2023-11-18T14:26:37;4.67;80.65
83254;HTU21D;73149;47.270;39.602;2023-11-18T14:29:07;4.68;80.70
83254;HTU21D;73149;47.270;39.602;2023-11-18T14:31:33;4.67;80.71
83254;HTU21D;73149;47.270;39.602;2023-11-18T14:34:03;4.67;80.72
83254;HTU21D;73149;47.270;39.602;2023-11-18T14:36:29;4.67;80.74
83254;HTU21D;73149;47.270;39.602;2023-11-18T14:38:55;4.65;80.74
83254;HTU21D;73149;47.270;39.602;2023-11-18T14:41:24;4.64;80.72
83254;HTU21D;73149;47.270;39.602;2023-11-18T14:43:52;4.63;80.75
83254;HTU21D;73149;47.270;39.602;2023-11-18T14:46:18;4.62;80.83
83254;HTU21D;73149;47.270;39.602;2023-11-18T14:48:44;4.62;80.88
83254;HTU21D;73149;47.270;39.602;2023-11-18T14:51:10;4.59;80.89
83254;HTU21D;73149;47.270;39.602;2023-11-18T14:53:38;4.58;80.93
83254;HTU21D;73149;47.270;39.602;2023-11-18T14:56:04;4.61;81.01
83254;HTU21D;73149;47.270;39.602;2023-11-18T14:58:31;4.61;81.01
83254;HTU21D;73149;47.270;39.602;2023-11-18T15:01:01;4.62;80.99
83254;HTU21D;73149;47.270;39.602;2023-11-18T15:03:28;4.64;81.04
83254;HTU21D;73149;47.270;39.602;2023-11-18T15:05:55;4.64;81.02
83254;HTU21D;73149;47.270;39.602;2023-11-18T15:08:20;4.61;81.07
83254;HTU21D;73149;47.270;39.602;2023-11-18T15:10:46;4.59;81.11
83254;HTU21D;73149;47.270;39.602;2023-11-18T15:13:12;4.58;81.11
83254;HTU21D;73149;47.270;39.602;2023-11-18T15:15:41;4.59;81.16
83254;HTU21D;73149;47.270;39.602;2023-11-18T15:18:07;4.53;81.15
83254;HTU21D;73149;47.270;39.602;2023-11-18T15:20:40;4.50;81.26
83254;HTU21D;73149;47.270;39.602;2023-11-18T15:23:09;4.51;81.32
83254;HTU21D;73149;47.270;39.602;2023-11-18T15:25:35;4.53;81.38
83254;HTU21D;73149;47.270;39.602;2023-11-18T15:28:00;4.56;81.37
83254;HTU21D;73149;47.270;39.602;2023-11-18T15:30:26;4.61;81.51
83254;HTU21D;73149;47.270;39.602;2023-11-18T15:32:53;4.69;81.32
83254;HTU21D;73149;47.270;39.602;2023-11-18T15:35:19;4.64;81.32
83254;HTU21D;73149;47.270;39.602;2023-11-18T15:37:47;4.61;81.39
83254;HTU21D;73149;47.270;39.602;2023-11-18T15:40:15;4.60;81.37
83254;HTU21D;73149;47.270;39.602;2023-11-18T15:42:45;4.56;81.43
83254;HTU21D;73149;47.270;39.602;2023-11-18T15:45:22;4.52;81.50
83254;HTU21D;73149;47.270;39.602;2023-11-18T15:47:50;4.54;81.54
83254;HTU21D;73149;47.270;39.602;2023-11-18T15:50:17;4.53;81.59